Time;durP1;ratioP1;P1;durP2;ratioP2;P2;SDS_P1;SDS_P2;PMS_P1;PMS_P2;Temp;Humidity;BMP_temperature;BMP_pressure;BME280_temperature;BME280_humidity;BME280_pressure;Samples;Min_cycle;Max_cycle;Signal;HPM_P1;HPM_P2
2022/03/18 00:03:58;;;;;;;1999.90;999.90;;;;;;;10.54;68.72;103177.84;15632418;28;20045;-62
2022/03/18 00:11:32;;;;;;;1999.90;999.90;;;;;;;10.49;69.59;103178.66;15632242;28;20045;-63
2022/03/18 00:19:04;;;;;;;;;;;;;;;10.33;70.20;103188.09;15608973;28;20065;-63
2022/03/18 00:26:37;;;;;;;1999.90;999.90;;;;;;;10.55;69.17;103202.69;15649235;28;20045;-62
2022/03/18 00:34:10;;;;;;;1999.90;999.90;;;;;;;10.24;70.10;103210.09;15646891;28;20131;-63
2022/03/18 00:41:44;;;;;;;1999.90;999.90;;;;;;;10.15;70.68;103208.03;15637171;28;20119;-63
2022/03/18 00:57:08;;;;;;;1999.90;999.90;;;;;;;10.33;70.04;103216.84;15641968;28;20323;-63
2022/03/18 01:04:40;;;;;;;1999.90;999.90;;;;;;;10.05;70.65;103214.38;15638315;28;20064;-62
2022/03/18 01:12:13;;;;;;;1999.90;999.90;;;;;;;10.01;71.62;103218.84;15631678;28;20134;-64
2022/03/18 01:19:46;;;;;;;1999.90;999.90;;;;;;;9.89;71.39;103219.00;15639681;28;20398;-64
2022/03/18 01:27:22;;;;;;;1999.90;999.90;;;;;;;9.71;71.62;103233.41;15670560;28;20045;-63
2022/03/18 01:34:54;;;;;;;;;;;;;;;9.89;70.86;103240.50;15658574;22;20041;-60
2022/03/18 01:42:29;;;;;;;1999.90;999.90;;;;;;;10.07;69.58;103246.47;15563096;28;19940;-62
2022/03/18 01:50:02;;;;;;;1999.90;999.90;;;;;;;9.58;70.44;103253.34;15577351;28;20046;-58
2022/03/18 01:57:35;;;;;;;1999.90;999.90;;;;;;;9.60;69.52;103257.56;15579789;28;20137;-55
2022/03/18 02:05:09;;;;;;;1999.90;999.90;;;;;;;9.86;68.38;103254.97;15577568;28;20077;-60
2022/03/18 02:12:42;;;;;;;1999.90;999.90;;;;;;;9.88;67.71;103278.69;15572261;28;20050;-59
2022/03/18 02:20:14;;;;;;;1999.90;999.90;;;;;;;9.94;67.33;103280.44;15611581;28;20147;-57
2022/03/18 02:27:56;;;;;;;1999.90;999.90;;;;;;;9.99;66.96;103282.41;15555601;28;20096;-60
2022/03/18 02:35:29;;;;;;;1999.90;999.90;;;;;;;9.59;67.11;103285.69;15582025;28;20054;-64
2022/03/18 02:43:03;;;;;;;1999.90;999.90;;;;;;;9.75;66.20;103298.66;15574847;28;20228;-60
2022/03/18 02:50:36;;;;;;;1999.90;999.90;;;;;;;9.69;65.73;103310.88;15546879;28;20042;-54
2022/03/18 02:58:09;;;;;;;1999.90;999.90;;;;;;;9.60;65.72;103318.91;15539380;28;20042;-58
2022/03/18 03:13:35;;;;;;;1999.90;999.90;;;;;;;9.54;65.17;103337.50;15537819;28;20124;-57
2022/03/18 03:21:07;;;;;;;1999.90;999.90;;;;;;;9.28;65.35;103346.69;15555754;28;20049;-59
2022/03/18 03:28:41;;;;;;;1999.90;999.90;;;;;;;9.51;64.60;103340.81;15543939;28;20037;-59
2022/03/18 03:36:15;;;;;;;1999.90;999.90;;;;;;;9.49;64.37;103361.72;15565720;28;20502;-58
2022/03/18 03:43:49;;;;;;;1999.90;999.90;;;;;;;9.56;63.94;103379.06;15538624;28;20431;-62
2022/03/18 03:51:21;;;;;;;;;;;;;;;9.69;63.91;103391.72;15571787;28;20069;-58
2022/03/18 03:58:54;;;;;;;1999.90;999.90;;;;;;;9.56;64.39;103393.00;15538283;28;19929;-57
2022/03/18 04:06:31;;;;;;;1999.90;999.90;;;;;;;9.52;64.45;103389.91;15546018;28;20132;-60
2022/03/18 04:14:05;;;;;;;1999.90;999.90;;;;;;;9.51;64.51;103398.53;15586197;28;20529;-55
2022/03/18 04:21:37;;;;;;;1999.90;999.90;;;;;;;9.72;63.74;103417.16;15596112;28;20037;-60
2022/03/18 04:29:12;;;;;;;1999.90;999.90;;;;;;;9.73;63.86;103421.63;15569955;28;20060;-58
2022/03/18 04:36:45;;;;;;;1999.90;999.90;;;;;;;9.60;64.07;103437.94;15585405;28;20111;-59
2022/03/18 04:44:18;;;;;;;1999.90;999.90;;;;;;;9.84;63.29;103445.75;15568038;28;20538;-60
2022/03/18 04:51:50;;;;;;;1999.90;999.90;;;;;;;9.75;63.85;103461.25;15589275;28;20042;-60
2022/03/18 04:59:23;;;;;;;1999.90;999.90;;;;;;;9.66;63.76;103467.56;15570819;28;20471;-56
2022/03/18 05:06:55;;;;;;;1999.90;999.90;;;;;;;9.64;63.29;103473.41;15591703;28;20045;-55
2022/03/18 05:14:29;;;;;;;1999.90;999.90;;;;;;;9.32;63.62;103470.47;15549716;28;20045;-55
2022/03/18 05:22:01;;;;;;;1999.90;999.90;;;;;;;9.07;63.37;103489.63;15581473;28;20042;-57
2022/03/18 05:29:35;;;;;;;1999.90;999.90;;;;;;;9.01;63.42;103494.25;15593688;28;20336;-61
2022/03/18 05:37:08;;;;;;;1999.90;999.90;;;;;;;8.72;63.70;103523.31;15566261;28;20049;-61
2022/03/18 05:44:41;;;;;;;1999.90;999.90;;;;;;;8.83;63.15;103530.72;15543118;28;20057;-56
2022/03/18 05:52:17;;;;;;;1999.90;999.90;;;;;;;8.61;63.43;103550.13;15588245;28;20041;-56
2022/03/18 05:59:51;;;;;;;1999.90;999.90;;;;;;;8.49;63.94;103561.31;15568761;28;20049;-60
2022/03/18 06:07:24;;;;;;;1999.90;999.90;;;;;;;8.56;64.02;103575.09;15597007;28;20150;-58
2022/03/18 06:14:57;;;;;;;1999.90;999.90;;;;;;;8.35;64.55;103571.94;15560261;28;20042;-57
2022/03/18 06:22:29;;;;;;;1999.90;999.90;;;;;;;8.65;63.98;103573.59;15580586;28;20045;-59
2022/03/18 06:30:03;;;;;;;1999.90;999.90;;;;;;;8.96;63.02;103608.38;15575590;28;20069;-59
2022/03/18 06:37:35;;;;;;;1999.90;999.90;;;;;;;8.87;63.07;103621.88;15561497;28;20058;-60
2022/03/18 06:45:10;;;;;;;1999.90;999.90;;;;;;;9.57;61.42;103636.38;15561326;28;20057;-62
2022/03/18 06:52:42;;;;;;;1999.90;999.90;;;;;;;10.32;59.17;103660.91;15560928;28;20052;-55
2022/03/18 07:00:16;;;;;;;1999.90;999.90;;;;;;;10.58;57.66;103654.50;15601651;28;20068;-57
2022/03/18 07:07:48;;;;;;;1999.90;999.90;;;;;;;9.74;59.54;103662.31;15536033;28;20033;-54
2022/03/18 07:15:22;;;;;;;1999.90;999.90;;;;;;;9.86;59.57;103673.34;15509183;28;20049;-59
2022/03/18 07:23:02;;;;;;;1999.90;999.90;;;;;;;9.91;59.71;103668.72;15569080;28;20049;-55
2022/03/18 07:30:36;;;;;;;1999.90;999.90;;;;;;;10.35;58.63;103685.50;15550602;28;20050;-58
2022/03/18 07:38:09;;;;;;;1999.90;999.90;;;;;;;11.51;55.42;103699.84;15622025;23;20115;-59
2022/03/18 07:45:45;;;;;;;1999.90;999.90;;;;;;;11.86;54.15;103701.25;15674734;28;20234;-62
2022/03/18 07:53:17;;;;;;;1999.90;999.90;;;;;;;12.12;53.37;103724.66;15669247;28;20052;-62
2022/03/18 08:00:51;;;;;;;1999.90;999.90;;;;;;;12.65;51.98;103736.69;15672950;28;20040;-62
2022/03/18 08:08:23;;;;;;;1999.90;999.90;;;;;;;12.84;51.10;103728.63;15638181;28;20440;-65
2022/03/18 08:15:57;;;;;;;1999.90;999.90;;;;;;;13.18;50.13;103741.03;15669465;28;20038;-61
2022/03/18 08:23:32;;;;;;;1999.90;999.90;;;;;;;12.96;49.87;103754.44;15670357;28;20083;-60
2022/03/18 08:31:05;;;;;;;1999.90;999.90;;;;;;;13.16;49.67;103742.44;15679943;28;20060;-59
2022/03/18 08:38:39;;;;;;;1999.90;999.90;;;;;;;12.75;50.65;103755.50;15665360;28;20041;-60
2022/03/18 08:46:12;;;;;;;;;;;;;;;12.61;51.39;103766.34;15679801;28;20044;-62
2022/03/18 08:53:44;;;;;;;1999.90;999.90;;;;;;;14.31;47.25;103781.19;15681188;28;20305;-61
2022/03/18 09:01:18;;;;;;;1999.90;999.90;;;;;;;14.96;45.76;103788.53;15669851;28;20065;-63
2022/03/18 09:08:50;;;;;;;1999.90;999.90;;;;;;;16.10;43.44;103805.19;15679216;28;20426;-62
2022/03/18 09:16:24;;;;;;;1999.90;999.90;;;;;;;16.09;43.62;103820.41;15674888;28;20436;-61
2022/03/18 09:23:56;;;;;;;1999.90;999.90;;;;;;;16.58;42.08;103815.69;15670844;28;20029;-61
2022/03/18 09:31:30;;;;;;;1999.90;999.90;;;;;;;16.20;43.06;103832.44;15661595;28;20049;-64
2022/03/18 09:39:03;;;;;;;1999.90;999.90;;;;;;;16.41;42.26;103833.91;15669843;28;20459;-62
2022/03/18 09:46:37;;;;;;;1999.90;999.90;;;;;;;17.38;41.29;103837.53;15675621;28;20517;-63
2022/03/18 09:54:11;;;;;;;1999.90;999.90;;;;;;;17.16;40.92;103855.88;15679650;28;20565;-62
2022/03/18 10:01:44;;;;;;;1999.90;999.90;;;;;;;19.55;38.42;103851.56;15661963;28;20073;-64
2022/03/18 10:09:27;;;;;;;1999.90;999.90;;;;;;;18.95;37.60;103856.56;15665715;28;20053;-62
2022/03/18 10:17:04;;;;;;;1999.90;999.90;;;;;;;20.64;36.92;103840.00;15658871;28;20072;-62
2022/03/18 10:24:39;;;;;;;138.05;129.10;;;;;;;22.08;32.62;103849.44;15671216;28;20494;-63
2022/03/18 10:32:16;;;;;;;235.32;220.23;;;;;;;21.43;33.87;103836.22;15670296;28;20072;-62
2022/03/18 10:39:50;;;;;;;1565.78;811.40;;;;;;;20.70;34.70;103841.50;15668615;28;20033;-63
2022/03/18 10:47:29;;;;;;;108.25;100.68;;;;;;;20.27;35.42;103847.78;15661627;28;20049;-63
2022/03/18 10:55:19;;;;;;;154.95;145.18;;;;;;;22.20;33.04;103846.75;15671341;28;20068;-61
2022/03/18 11:02:58;;;;;;;183.77;172.95;;;;;;;23.32;31.88;103848.25;15668058;28;20045;-63
2022/03/18 11:18:29;;;;;;;111.60;104.30;;;;;;;22.12;32.29;103862.66;15670609;28;20049;-62
2022/03/18 11:26:01;;;;;;;191.43;178.65;;;;;;;22.61;30.43;103846.09;15662573;28;20090;-64
2022/03/18 11:33:35;;;;;;;186.77;174.65;;;;;;;24.72;27.92;103849.44;15670242;28;20102;-62
2022/03/18 11:41:08;;;;;;;112.55;105.63;;;;;;;24.89;27.02;103836.94;15665344;28;20044;-63
2022/03/18 11:48:52;;;;;;;87.18;81.47;;;;;;;23.37;29.02;103835.81;15649519;28;20206;-63
2022/03/18 11:56:42;;;;;;;116.88;109.88;;;;;;;24.94;27.15;103834.69;15661485;28;20344;-64
2022/03/18 12:04:39;;;;;;;169.85;158.93;;;;;;;23.58;28.23;103817.56;15669237;28;20172;-65
2022/03/18 12:12:15;;;;;;;202.48;190.27;;;;;;;24.81;26.36;103823.63;15657649;28;20401;-64
2022/03/18 12:19:50;;;;;;;74.40;69.65;;;;;;;25.03;24.37;103814.59;15667709;28;20041;-64
2022/03/18 12:27:28;;;;;;;72.53;67.82;;;;;;;25.40;25.28;103811.66;15666931;28;20505;-63
2022/03/18 12:35:04;;;;;;;34.40;31.65;;;;;;;25.38;24.28;103812.00;15671653;28;20049;-65
2022/03/18 12:42:50;;;;;;;77.45;72.25;;;;;;;24.89;24.67;103811.22;15679471;28;20533;-64
2022/03/18 12:50:31;;;;;;;99.53;92.90;;;;;;;26.21;22.55;103818.94;15678142;28;20072;-64
2022/03/18 12:58:06;;;;;;;82.78;77.57;;;;;;;24.93;23.97;103797.91;15678347;28;20605;-63
2022/03/18 13:05:40;;;;;;;126.10;118.73;;;;;;;28.49;20.62;103800.41;15673676;28;20041;-63
2022/03/18 13:13:14;;;;;;;69.82;65.13;;;;;;;28.80;19.72;103814.47;15676604;28;20307;-63
2022/03/18 13:20:47;;;;;;;112.00;105.40;;;;;;;29.42;20.29;103817.06;15676247;28;20048;-63
2022/03/18 13:28:21;;;;;;;59.80;55.78;;;;;;;26.03;20.78;103817.63;15675402;28;20052;-63
2022/03/18 13:35:57;;;;;;;98.25;92.32;;;;;;;29.14;19.61;103809.66;15670671;28;20047;-63
2022/03/18 13:43:31;;;;;;;138.25;130.13;;;;;;;26.97;20.11;103811.91;15671874;28;20779;-63
2022/03/18 13:51:06;;;;;;;93.82;88.40;;;;;;;21.64;26.65;103808.81;15673492;28;20063;-63
2022/03/18 13:58:38;;;;;;;106.25;99.85;;;;;;;19.21;29.94;103815.25;15669136;28;20136;-62
2022/03/18 14:06:12;;;;;;;61.85;57.58;;;;;;;18.85;29.05;103812.34;15654438;28;20073;-61
2022/03/18 14:13:45;;;;;;;33.03;30.80;;;;;;;18.13;29.68;103812.03;15672181;28;20461;-62
2022/03/18 14:21:18;;;;;;;22.75;20.55;;;;;;;17.55;30.63;103806.78;15667000;28;20033;-62
2022/03/18 14:28:51;;;;;;;18.40;17.05;;;;;;;18.06;29.85;103811.63;15673255;28;20049;-62
2022/03/18 14:36:24;;;;;;;22.00;20.08;;;;;;;17.92;29.45;103817.19;15670324;28;20036;-64
2022/03/18 14:43:56;;;;;;;;;;;;;;;17.15;29.64;103805.41;15657084;28;20095;-62
2022/03/18 14:51:30;;;;;;;21.10;19.63;;;;;;;16.95;30.24;103798.06;15662269;28;20409;-62
2022/03/18 14:59:03;;;;;;;21.10;19.42;;;;;;;16.98;28.95;103795.47;15662901;28;20044;-61
2022/03/18 15:06:40;;;;;;;26.90;25.25;;;;;;;16.96;28.16;103778.00;15657668;28;20859;-59
2022/03/18 15:14:13;;;;;;;21.38;19.80;;;;;;;16.42;29.81;103778.38;15661992;28;20041;-62
2022/03/18 15:21:48;;;;;;;22.60;20.95;;;;;;;16.64;30.00;103792.75;15671962;28;20037;-62
2022/03/18 15:29:21;;;;;;;22.75;21.02;;;;;;;16.31;29.71;103788.09;15654739;28;20045;-62
2022/03/18 15:36:55;;;;;;;23.92;22.13;;;;;;;15.99;29.35;103799.97;15667201;28;20047;-61
2022/03/18 15:44:27;;;;;;;25.05;23.52;;;;;;;16.05;30.07;103796.81;15668627;28;20530;-61
2022/03/18 15:52:11;;;;;;;35.42;33.40;;;;;;;15.92;30.54;103805.09;15663135;28;20040;-59
2022/03/18 15:59:47;;;;;;;32.58;30.52;;;;;;;15.79;30.61;103807.44;15666410;28;20044;-59
2022/03/18 16:07:30;;;;;;;40.25;37.80;;;;;;;15.45;30.89;103818.66;15658945;28;20508;-60
2022/03/18 16:15:05;;;;;;;40.00;37.63;;;;;;;15.26;31.36;103815.66;15675739;28;20463;-60
2022/03/18 16:22:39;;;;;;;45.88;43.17;;;;;;;15.26;30.88;103824.09;15676355;28;20391;-62
2022/03/18 16:30:13;;;;;;;;;;;;;;;15.24;31.96;103832.00;15669659;28;20076;-60
2022/03/18 16:37:48;;;;;;;30.48;28.33;;;;;;;15.34;32.16;103839.56;15678687;28;19974;-59
2022/03/18 16:45:23;;;;;;;48.78;45.88;;;;;;;14.85;31.42;103848.78;15667871;28;20045;-60
2022/03/18 16:52:58;;;;;;;52.72;49.60;;;;;;;14.77;31.40;103852.16;15673134;28;20041;-63
2022/03/18 17:00:32;;;;;;;55.53;51.63;;;;;;;14.64;31.48;103873.28;15674425;28;20856;-60
2022/03/18 17:08:06;;;;;;;37.85;35.33;;;;;;;14.31;32.64;103882.31;15676759;28;20052;-59
2022/03/18 17:15:38;;;;;;;;;;;;;;;13.99;33.23;103879.78;15672265;28;20049;-63
2022/03/18 17:23:13;;;;;;;35.72;33.08;;;;;;;14.14;33.31;103888.19;15651946;28;19963;-62
2022/03/18 17:30:45;;;;;;;48.22;44.83;;;;;;;14.21;33.39;103913.22;15654745;28;20059;-64
2022/03/18 17:38:19;;;;;;;50.08;47.05;;;;;;;13.85;34.08;103915.97;15664662;28;20641;-64
2022/03/18 17:45:51;;;;;;;1999.90;999.90;;;;;;;13.39;34.94;103910.25;15672812;28;20152;-58
2022/03/18 17:53:25;;;;;;;1999.90;999.90;;;;;;;13.18;35.60;103928.91;15656088;28;20436;-60
2022/03/18 18:00:57;;;;;;;64.80;60.78;;;;;;;12.86;34.76;103947.81;15675306;28;20037;-60
2022/03/18 18:08:31;;;;;;;1999.90;999.90;;;;;;;12.99;36.36;103950.13;15673139;28;20044;-59
2022/03/18 18:16:03;;;;;;;1999.90;999.90;;;;;;;12.97;36.69;103967.22;15672255;28;20041;-64
2022/03/18 18:23:38;;;;;;;1999.90;999.90;;;;;;;12.49;36.85;103957.06;15673670;28;20033;-63
2022/03/18 18:31:10;;;;;;;1999.90;999.90;;;;;;;12.09;38.38;103961.22;15671270;28;20114;-57
2022/03/18 18:38:44;;;;;;;1999.90;999.90;;;;;;;12.21;39.72;103969.44;15672328;28;20062;-62
2022/03/18 18:46:16;;;;;;;1999.90;999.90;;;;;;;12.10;39.70;103978.84;15673520;28;20144;-58
2022/03/18 18:53:50;;;;;;;1999.90;999.90;;;;;;;11.93;40.91;103978.94;15673080;28;20029;-58
2022/03/18 19:01:22;;;;;;;1999.90;999.90;;;;;;;11.76;40.97;103990.19;15662627;28;20677;-60
2022/03/18 19:08:56;;;;;;;1999.90;999.90;;;;;;;11.51;41.65;103987.94;15662057;28;20047;-61
2022/03/18 19:16:28;;;;;;;1999.90;999.90;;;;;;;11.17;42.47;103987.22;15655300;28;20045;-62
2022/03/18 19:24:03;;;;;;;1999.90;999.90;;;;;;;10.97;43.58;103996.13;15659885;28;20052;-61
2022/03/18 19:39:27;;;;;;;1999.90;999.90;;;;;;;11.14;44.38;104001.69;15665164;28;20378;-59
2022/03/18 19:47:04;;;;;;;1999.90;999.90;;;;;;;11.17;44.90;104000.34;15666554;28;20048;-61
2022/03/18 19:54:38;;;;;;;1999.90;999.90;;;;;;;10.93;45.48;104011.72;15666777;28;20049;-61
2022/03/18 20:02:10;;;;;;;1999.90;999.90;;;;;;;11.08;44.47;104010.28;15662060;28;20485;-61
2022/03/18 20:09:47;;;;;;;1999.90;999.90;;;;;;;10.86;46.13;104008.28;15666932;28;20115;-61
2022/03/18 20:17:21;;;;;;;1999.90;999.90;;;;;;;10.65;47.42;104017.41;15668650;28;20588;-59
2022/03/18 20:24:55;;;;;;;1999.90;999.90;;;;;;;10.72;47.92;104018.06;15663214;28;20460;-62
2022/03/18 20:32:27;;;;;;;1999.90;999.90;;;;;;;10.79;47.07;104015.97;15667543;28;20402;-59
2022/03/18 20:40:01;;;;;;;1999.90;999.90;;;;;;;10.68;48.22;104022.50;15657158;28;20045;-59
2022/03/18 20:47:33;;;;;;;;;;;;;;;10.67;48.68;104026.38;15666913;28;20049;-60
2022/03/18 20:55:08;;;;;;;1999.90;999.90;;;;;;;10.52;48.00;104024.16;15688242;28;20142;-64
2022/03/18 21:02:40;;;;;;;1999.90;999.90;;;;;;;10.75;48.03;104025.97;15674557;28;20068;-60
2022/03/18 21:10:13;;;;;;;1999.90;999.90;;;;;;;10.62;47.97;104029.06;15667199;28;20037;-62
2022/03/18 21:17:46;;;;;;;1999.90;999.90;;;;;;;10.52;48.44;104032.53;15670707;28;20564;-60
2022/03/18 21:30:38;;;;;;;1999.90;999.90;;;;;;;10.32;49.66;104032.22;15675900;28;20084;-60
2022/03/18 21:33:15;;;;;;;1999.90;999.90;;;;;;;10.05;49.70;104041.16;15675826;28;20048;-61
2022/03/18 21:40:48;;;;;;;1999.90;999.90;;;;;;;9.77;49.97;104035.53;15657487;28;20498;-62
2022/03/18 21:48:20;;;;;;;1999.90;999.90;;;;;;;9.55;50.45;104040.94;15676377;28;20098;-62
2022/03/18 21:55:54;;;;;;;1999.90;999.90;;;;;;;9.40;51.22;104052.59;15674011;28;20076;-62
2022/03/18 22:03:27;;;;;;;1999.90;999.90;;;;;;;9.09;52.42;104047.41;15657266;28;20529;-61
2022/03/18 22:11:00;;;;;;;1999.90;999.90;;;;;;;8.98;53.37;104053.84;15648339;28;20040;-62
2022/03/18 22:18:32;;;;;;;;;;;;;;;9.12;53.19;104058.91;15631311;28;20045;-60
2022/03/18 22:26:06;;;;;;;1999.90;999.90;;;;;;;8.87;54.67;104050.81;15671343;28;19928;-60
2022/03/18 22:33:38;;;;;;;1999.90;999.90;;;;;;;8.75;56.53;104055.50;15671577;28;20045;-62
2022/03/18 22:41:11;;;;;;;1999.90;999.90;;;;;;;8.91;57.05;104063.16;15675630;28;20060;-60
2022/03/18 22:48:45;;;;;;;1999.90;999.90;;;;;;;8.85;57.49;104071.59;15675384;28;20049;-59
2022/03/18 22:56:19;;;;;;;1999.90;999.90;;;;;;;8.81;57.22;104078.75;15672564;28;20045;-60
2022/03/18 23:03:51;;;;;;;1999.90;999.90;;;;;;;8.74;58.70;104080.78;15672274;28;20041;-59
2022/03/18 23:19:15;;;;;;;1999.90;999.90;;;;;;;8.92;58.96;104067.63;15670413;28;20055;-59
2022/03/18 23:26:48;;;;;;;1999.90;999.90;;;;;;;8.78;59.65;104073.69;15669411;28;20198;-61
2022/03/18 23:34:21;;;;;;;1999.90;999.90;;;;;;;8.77;59.92;104083.13;15668859;28;20037;-60
2022/03/18 23:41:54;;;;;;;1999.90;999.90;;;;;;;8.46;59.39;104070.34;15666432;28;20055;-60
2022/03/18 23:49:26;;;;;;;1999.90;999.90;;;;;;;8.55;58.17;104085.63;15636678;28;20053;-65
2022/03/18 23:57:00;;;;;;;1999.90;999.90;;;;;;;8.48;57.81;104084.84;15645481;28;20464;-60
